createdAt,value
2017-12-26T00:00:25.114Z,0.00
2017-12-26T00:01:25.552Z,0.00
2017-12-26T00:02:47.125Z,0.00
2017-12-26T00:03:26.400Z,0.00
2017-12-26T00:04:26.869Z,0.00
2017-12-26T00:05:27.240Z,0.00
2017-12-26T00:06:27.668Z,0.00
2017-12-26T00:07:28.111Z,0.00
2017-12-26T00:08:49.655Z,0.00
2017-12-26T00:09:29.033Z,0.00
2017-12-26T00:10:29.387Z,0.00
2017-12-26T00:11:29.847Z,0.00
2017-12-26T00:12:30.185Z,0.00
2017-12-26T00:13:30.628Z,0.00
2017-12-26T00:14:52.183Z,0.00
2017-12-26T00:15:31.444Z,0.00
2017-12-26T00:16:31.876Z,0.00
2017-12-26T00:17:32.308Z,0.00
2017-12-26T00:18:32.705Z,0.00
2017-12-26T00:19:33.191Z,0.00
2017-12-26T00:20:54.748Z,0.00
2017-12-26T00:21:33.979Z,0.00
2017-12-26T00:22:34.414Z,0.00
2017-12-26T00:23:34.822Z,0.00
2017-12-26T00:24:35.257Z,0.00
2017-12-26T00:25:35.678Z,0.00
2017-12-26T00:26:57.240Z,0.00
2017-12-26T00:27:36.520Z,0.00
2017-12-26T00:28:36.952Z,0.00
2017-12-26T00:29:37.368Z,0.00
2017-12-26T00:30:37.846Z,0.00
2017-12-26T00:31:38.244Z,0.00
2017-12-26T00:32:59.807Z,0.00
2017-12-26T00:33:39.127Z,0.00
2017-12-26T00:34:39.538Z,0.00
2017-12-26T00:35:39.881Z,0.00
2017-12-26T00:36:40.357Z,0.00
2017-12-26T00:37:40.782Z,0.00
2017-12-26T00:39:02.342Z,0.00
2017-12-26T00:39:41.599Z,0.00
2017-12-26T00:40:42.018Z,0.00
2017-12-26T00:41:42.397Z,0.00
2017-12-26T00:42:42.835Z,0.00
2017-12-26T00:43:43.234Z,0.00
2017-12-26T00:45:04.815Z,0.00
2017-12-26T00:45:44.076Z,0.00
2017-12-26T00:46:44.493Z,0.00
2017-12-26T00:47:44.917Z,0.00
2017-12-26T00:48:45.348Z,0.00
2017-12-26T00:49:45.756Z,0.00
2017-12-26T00:51:07.341Z,0.00
2017-12-26T00:51:46.604Z,0.00
2017-12-26T00:52:47.016Z,0.00
2017-12-26T00:53:47.435Z,0.00
2017-12-26T00:54:47.863Z,0.00
2017-12-26T00:55:48.289Z,0.00
2017-12-26T00:57:09.868Z,0.00
2017-12-26T00:57:49.153Z,0.00
2017-12-26T00:58:49.545Z,0.00
2017-12-26T00:59:49.977Z,0.00
2017-12-26T01:00:50.388Z,0.00
2017-12-26T01:01:50.810Z,0.00
2017-12-26T01:03:12.391Z,0.00
2017-12-26T01:03:51.655Z,0.00
2017-12-26T01:04:52.089Z,0.00
2017-12-26T01:05:52.495Z,0.00
2017-12-26T01:06:52.917Z,0.00
2017-12-26T01:07:53.338Z,0.00
2017-12-26T01:09:14.916Z,0.00
2017-12-26T01:09:54.180Z,0.00
2017-12-26T01:10:54.610Z,0.00
2017-12-26T01:11:55.035Z,0.00
2017-12-26T01:12:55.450Z,0.00
2017-12-26T01:13:55.863Z,0.00
2017-12-26T01:15:17.445Z,0.00
2017-12-26T01:15:56.705Z,0.00
2017-12-26T01:16:57.128Z,0.00
2017-12-26T01:17:57.547Z,0.00
2017-12-26T01:18:57.965Z,0.00
2017-12-26T01:19:58.390Z,0.00
2017-12-26T01:21:19.978Z,0.00
2017-12-26T01:21:59.232Z,0.00
2017-12-26T01:22:59.655Z,0.00
2017-12-26T01:24:00.080Z,0.00
2017-12-26T01:25:00.496Z,0.00
2017-12-26T01:26:00.915Z,0.00
2017-12-26T01:27:22.492Z,0.00
2017-12-26T01:28:01.751Z,0.00
2017-12-26T01:29:02.176Z,0.00
2017-12-26T01:30:02.595Z,0.00
2017-12-26T01:31:03.010Z,0.00
2017-12-26T01:32:03.454Z,0.00
2017-12-26T01:33:25.016Z,0.00
2017-12-26T01:34:04.287Z,0.00
2017-12-26T01:35:04.716Z,0.00
2017-12-26T01:36:05.127Z,0.00
2017-12-26T01:37:05.544Z,0.00
2017-12-26T01:38:05.964Z,0.00
2017-12-26T01:39:27.540Z,0.00
2017-12-26T01:40:06.802Z,0.00
2017-12-26T01:41:07.221Z,0.00
2017-12-26T01:42:07.650Z,0.00
2017-12-26T01:43:08.079Z,0.00
2017-12-26T01:44:08.495Z,0.00
2017-12-26T01:45:30.070Z,0.00
2017-12-26T01:46:09.328Z,0.00
2017-12-26T01:47:09.746Z,0.00
2017-12-26T01:48:10.171Z,0.00
2017-12-26T01:49:10.592Z,0.00
2017-12-26T01:50:11.030Z,0.00
2017-12-26T01:51:32.592Z,0.00
2017-12-26T01:52:11.856Z,0.00
2017-12-26T01:53:12.271Z,0.00
2017-12-26T01:54:12.700Z,0.00
2017-12-26T01:55:13.112Z,0.00
2017-12-26T01:56:13.533Z,0.00
2017-12-26T01:57:35.108Z,0.00
2017-12-26T01:58:14.374Z,0.00
2017-12-26T01:59:14.789Z,0.00
2017-12-26T02:00:15.416Z,0.00
2017-12-26T02:01:15.629Z,0.00
2017-12-26T02:02:16.059Z,0.00
2017-12-26T02:03:37.631Z,0.00
2017-12-26T02:04:16.946Z,0.00
2017-12-26T02:05:17.317Z,0.00
2017-12-26T02:06:17.738Z,0.00
2017-12-26T02:07:18.163Z,0.00
2017-12-26T02:08:18.578Z,0.00
2017-12-26T02:09:40.161Z,0.00
2017-12-26T02:10:19.419Z,0.00
2017-12-26T02:11:19.838Z,0.00
2017-12-26T02:12:20.278Z,0.00
2017-12-26T02:13:20.683Z,0.00
2017-12-26T02:14:21.105Z,0.00
2017-12-26T02:15:42.676Z,0.00
2017-12-26T02:16:21.944Z,0.00
2017-12-26T02:17:22.362Z,0.00
2017-12-26T02:18:22.786Z,0.00
2017-12-26T02:19:23.208Z,0.00
2017-12-26T02:20:23.628Z,0.00
2017-12-26T02:21:45.209Z,0.00
2017-12-26T02:22:24.468Z,0.00
2017-12-26T02:23:24.888Z,0.00
2017-12-26T02:24:25.311Z,0.00
2017-12-26T02:25:25.733Z,0.00
2017-12-26T02:26:26.151Z,0.00
2017-12-26T02:27:47.728Z,0.00
2017-12-26T02:28:26.989Z,0.00
2017-12-26T02:29:27.408Z,0.00
2017-12-26T02:30:27.834Z,0.00
2017-12-26T02:31:28.251Z,0.00
2017-12-26T02:32:28.665Z,0.00
2017-12-26T02:33:50.267Z,0.00
2017-12-26T02:34:29.523Z,0.00
2017-12-26T02:35:29.931Z,0.00
2017-12-26T02:36:30.350Z,0.00
2017-12-26T02:37:30.775Z,0.00
2017-12-26T02:38:31.198Z,0.00
2017-12-26T02:39:52.770Z,0.00
2017-12-26T02:40:32.030Z,0.00
2017-12-26T02:41:32.455Z,0.00
2017-12-26T02:42:32.869Z,0.00
2017-12-26T02:43:33.304Z,0.00
2017-12-26T02:44:33.714Z,0.00
2017-12-26T02:45:55.294Z,0.00
2017-12-26T02:46:34.562Z,0.00
2017-12-26T02:47:34.979Z,0.00
2017-12-26T02:48:35.400Z,0.00
2017-12-26T02:49:35.817Z,0.00
2017-12-26T02:50:36.235Z,0.00
2017-12-26T02:51:57.817Z,0.00
2017-12-26T02:52:37.076Z,0.00
2017-12-26T02:53:37.504Z,0.00
2017-12-26T02:54:37.932Z,0.00
2017-12-26T02:55:38.336Z,0.00
2017-12-26T02:56:38.758Z,0.00
2017-12-26T02:58:00.334Z,0.00
2017-12-26T02:58:39.607Z,0.00
2017-12-26T02:59:40.053Z,0.00
2017-12-26T03:00:40.491Z,0.00
2017-12-26T03:01:40.864Z,0.00
2017-12-26T03:02:41.281Z,0.00
2017-12-26T03:04:02.863Z,0.00
2017-12-26T03:04:42.126Z,0.00
2017-12-26T03:05:42.544Z,0.00
2017-12-26T03:06:42.961Z,0.00
2017-12-26T03:07:43.380Z,0.00
2017-12-26T03:08:43.805Z,0.00
2017-12-26T03:10:05.385Z,0.00
2017-12-26T03:10:44.658Z,0.00
2017-12-26T03:11:45.069Z,0.00
2017-12-26T03:12:45.545Z,0.00
2017-12-26T03:13:45.904Z,0.00
2017-12-26T03:14:46.448Z,0.00
2017-12-26T03:16:07.903Z,0.00
2017-12-26T03:16:47.165Z,0.00
2017-12-26T03:17:47.593Z,0.00
2017-12-26T03:18:48.018Z,0.00
2017-12-26T03:19:48.437Z,0.00
2017-12-26T03:20:48.849Z,0.00
2017-12-26T03:22:10.444Z,0.00
2017-12-26T03:22:49.684Z,0.00
2017-12-26T03:23:50.104Z,0.00
2017-12-26T03:24:50.529Z,0.00
2017-12-26T03:25:50.941Z,0.00
2017-12-26T03:26:51.374Z,0.00
2017-12-26T03:28:12.951Z,0.00
2017-12-26T03:28:52.218Z,0.00
2017-12-26T03:29:52.633Z,0.00
2017-12-26T03:30:53.050Z,0.00
2017-12-26T03:31:53.467Z,0.00
2017-12-26T03:32:53.886Z,0.00
2017-12-26T03:34:15.467Z,0.00
2017-12-26T03:34:54.737Z,0.00
2017-12-26T03:35:55.158Z,0.00
2017-12-26T03:36:55.585Z,0.00
2017-12-26T03:37:55.999Z,0.00
2017-12-26T03:38:56.416Z,0.00
2017-12-26T03:40:17.997Z,0.00
2017-12-26T03:40:57.247Z,0.00
2017-12-26T03:41:57.663Z,0.00
2017-12-26T03:42:58.082Z,0.00
2017-12-26T03:43:58.510Z,0.00
2017-12-26T03:44:58.933Z,0.00
2017-12-26T03:46:20.499Z,0.00
2017-12-26T03:46:59.774Z,0.00
2017-12-26T03:48:00.191Z,0.00
2017-12-26T03:49:00.618Z,0.00
2017-12-26T03:50:01.029Z,0.00
2017-12-26T03:51:01.443Z,0.00
2017-12-26T03:52:23.022Z,0.00
2017-12-26T03:53:02.283Z,0.00
2017-12-26T03:54:02.699Z,0.00
2017-12-26T03:55:03.123Z,0.00
2017-12-26T03:56:03.557Z,0.00
2017-12-26T03:57:03.983Z,0.00
2017-12-26T03:58:25.556Z,0.00
2017-12-26T03:59:04.816Z,0.00
2017-12-26T04:00:05.229Z,0.00
2017-12-26T04:01:05.645Z,0.00
2017-12-26T04:02:06.064Z,0.00
2017-12-26T04:03:06.482Z,0.00
2017-12-26T04:04:28.079Z,0.00
2017-12-26T04:05:07.332Z,0.00
2017-12-26T04:06:07.756Z,0.00
2017-12-26T04:07:08.170Z,0.00
2017-12-26T04:08:08.586Z,0.00
2017-12-26T04:09:09.023Z,0.00
2017-12-26T04:10:30.585Z,0.00
2017-12-26T04:11:09.849Z,0.00
2017-12-26T04:12:10.263Z,0.00
2017-12-26T04:13:10.686Z,0.00
2017-12-26T04:14:11.099Z,0.00
2017-12-26T04:15:11.538Z,0.00
2017-12-26T04:16:33.109Z,0.00
2017-12-26T04:17:12.369Z,0.00
2017-12-26T04:18:12.793Z,0.00
2017-12-26T04:19:13.208Z,0.00
2017-12-26T04:20:13.629Z,0.00
2017-12-26T04:21:14.044Z,0.00
2017-12-26T04:22:35.625Z,0.00
2017-12-26T04:23:14.888Z,0.00
2017-12-26T04:24:15.388Z,0.00
2017-12-26T04:25:15.732Z,0.00
2017-12-26T04:26:16.144Z,0.00
2017-12-26T04:27:16.571Z,0.00
2017-12-26T04:28:38.148Z,0.00
2017-12-26T04:29:17.405Z,0.00
2017-12-26T04:30:17.832Z,0.00
2017-12-26T04:31:18.241Z,0.00
2017-12-26T04:32:18.670Z,0.00
2017-12-26T04:33:19.080Z,0.00
2017-12-26T04:34:40.672Z,0.00
2017-12-26T04:35:19.932Z,0.00
2017-12-26T04:36:20.386Z,0.00
2017-12-26T04:37:20.773Z,0.00
2017-12-26T04:38:21.185Z,0.00
2017-12-26T04:39:21.611Z,0.00
2017-12-26T04:40:43.184Z,0.00
2017-12-26T04:41:22.446Z,0.00
2017-12-26T04:42:22.863Z,0.00
2017-12-26T04:43:23.281Z,0.00
2017-12-26T04:45:56.746Z,0.00
2017-12-26T04:46:57.155Z,0.00
2017-12-26T04:47:57.577Z,0.00
2017-12-26T04:48:57.994Z,0.00
2017-12-26T04:49:58.413Z,0.00
2017-12-26T04:50:58.832Z,0.00
2017-12-26T04:51:59.261Z,0.00
2017-12-26T04:52:59.680Z,0.00
2017-12-26T04:54:00.094Z,0.00
2017-12-26T04:55:00.512Z,0.00
2017-12-26T04:56:00.935Z,0.00
2017-12-26T04:57:01.358Z,0.00
2017-12-26T04:58:01.780Z,0.00
2017-12-26T04:59:02.204Z,0.00
2017-12-26T05:00:02.615Z,0.00
2017-12-26T05:01:03.038Z,0.00
2017-12-26T05:02:03.454Z,0.00
2017-12-26T05:03:03.883Z,0.00
2017-12-26T05:04:04.295Z,0.00
2017-12-26T05:05:04.722Z,0.00
2017-12-26T05:06:05.133Z,0.00
2017-12-26T05:07:05.551Z,0.00
2017-12-26T05:08:05.976Z,0.00
2017-12-26T05:09:06.393Z,0.00
2017-12-26T05:10:06.816Z,0.00
2017-12-26T05:11:07.242Z,0.00
2017-12-26T05:12:07.656Z,0.00
2017-12-26T05:13:08.078Z,0.00
2017-12-26T05:14:08.494Z,0.00
2017-12-26T05:15:08.916Z,0.00
2017-12-26T05:16:09.335Z,0.00
2017-12-26T05:17:09.764Z,0.00
2017-12-26T05:18:10.181Z,0.00
2017-12-26T05:19:10.596Z,0.00
2017-12-26T05:20:11.019Z,0.00
2017-12-26T05:21:11.444Z,0.00
2017-12-26T05:22:11.864Z,0.00
2017-12-26T05:23:12.281Z,0.00
2017-12-26T05:24:12.697Z,0.00
2017-12-26T05:25:13.121Z,0.00
2017-12-26T05:26:13.567Z,0.00
2017-12-26T05:27:13.958Z,0.00
2017-12-26T05:28:14.382Z,0.00
2017-12-26T05:29:14.803Z,0.00
2017-12-26T05:30:15.230Z,0.00
2017-12-26T05:31:15.643Z,0.00
2017-12-26T05:32:16.061Z,0.00
2017-12-26T05:33:16.482Z,0.00
2017-12-26T05:34:16.898Z,0.00
2017-12-26T05:35:17.325Z,0.00
2017-12-26T05:36:17.741Z,0.00
2017-12-26T05:37:18.159Z,0.00
2017-12-26T05:38:18.581Z,0.00
2017-12-26T05:39:19.003Z,0.00
2017-12-26T05:40:19.423Z,0.00
2017-12-26T05:41:19.844Z,0.00
2017-12-26T05:42:20.396Z,0.00
2017-12-26T05:43:20.675Z,0.00
2017-12-26T05:44:21.102Z,0.00
2017-12-26T05:45:21.529Z,0.00
2017-12-26T05:46:21.944Z,0.00
2017-12-26T05:47:22.364Z,0.00
2017-12-26T05:48:22.782Z,0.00
2017-12-26T05:49:23.203Z,0.00
2017-12-26T05:50:23.622Z,0.00
2017-12-26T05:51:24.044Z,0.00
2017-12-26T05:52:24.470Z,0.00
2017-12-26T05:53:24.884Z,0.00
2017-12-26T05:54:25.306Z,0.00
2017-12-26T05:55:25.722Z,0.00
2017-12-26T05:56:26.142Z,0.00
2017-12-26T05:57:26.566Z,0.00
2017-12-26T05:58:26.984Z,0.00
2017-12-26T05:59:27.419Z,0.00
2017-12-26T06:00:27.821Z,0.00
2017-12-26T06:01:28.246Z,0.00
2017-12-26T06:02:28.670Z,0.00
2017-12-26T06:03:29.089Z,0.00
2017-12-26T06:04:29.505Z,0.00
2017-12-26T06:05:29.929Z,0.00
2017-12-26T06:06:30.344Z,0.00
2017-12-26T06:07:30.768Z,0.00
2017-12-26T06:08:31.184Z,0.00
2017-12-26T06:09:31.611Z,0.00
2017-12-26T06:10:32.026Z,0.00
2017-12-26T06:11:32.449Z,0.00
2017-12-26T06:12:32.867Z,0.00
2017-12-26T06:13:33.287Z,0.00
2017-12-26T06:14:33.707Z,0.00
2017-12-26T06:15:34.123Z,0.00
2017-12-26T06:16:34.550Z,0.00
2017-12-26T06:17:34.970Z,0.00
2017-12-26T06:18:35.412Z,0.00
2017-12-26T06:19:35.807Z,0.00
2017-12-26T06:20:36.228Z,0.00
2017-12-26T06:21:36.648Z,0.00
2017-12-26T06:22:37.074Z,0.00
2017-12-26T06:23:37.490Z,0.00
2017-12-26T06:24:37.921Z,0.00
2017-12-26T06:25:38.332Z,0.00
2017-12-26T06:26:38.749Z,0.00
2017-12-26T06:27:39.174Z,0.00
2017-12-26T06:28:39.587Z,0.00
2017-12-26T06:29:40.010Z,0.00
2017-12-26T06:30:40.497Z,0.00
2017-12-26T06:31:40.852Z,0.00
2017-12-26T06:32:41.283Z,0.00
2017-12-26T06:33:41.690Z,0.00
2017-12-26T06:34:42.114Z,0.00
2017-12-26T06:35:42.534Z,0.00
2017-12-26T06:36:42.960Z,0.00
2017-12-26T06:37:43.370Z,0.00
2017-12-26T06:38:43.792Z,0.00
2017-12-26T06:39:44.215Z,0.00
2017-12-26T06:40:44.633Z,0.00
2017-12-26T06:41:45.055Z,0.00
2017-12-26T06:42:45.567Z,0.00
2017-12-26T06:43:45.899Z,0.00
2017-12-26T06:44:46.329Z,0.00
2017-12-26T06:45:46.743Z,0.00
2017-12-26T06:46:47.155Z,0.00
2017-12-26T06:47:47.573Z,0.00
2017-12-26T06:48:47.998Z,0.00
2017-12-26T06:49:48.415Z,0.00
2017-12-26T06:50:48.836Z,0.00
2017-12-26T06:51:49.260Z,0.00
2017-12-26T06:52:49.677Z,0.00
2017-12-26T06:53:50.097Z,0.00
2017-12-26T06:54:50.517Z,0.00
2017-12-26T06:55:50.936Z,0.00
2017-12-26T06:56:51.358Z,0.00
2017-12-26T06:57:51.778Z,0.00
2017-12-26T06:58:52.199Z,0.00
2017-12-26T06:59:52.620Z,0.00
2017-12-26T07:00:53.139Z,0.00
2017-12-26T07:01:53.466Z,0.00
2017-12-26T07:02:53.886Z,0.00
2017-12-26T07:03:54.302Z,0.00
2017-12-26T07:04:54.722Z,0.00
2017-12-26T07:05:55.142Z,0.00
2017-12-26T07:06:55.562Z,0.00
2017-12-26T07:07:55.981Z,0.00
2017-12-26T07:08:56.403Z,0.00
2017-12-26T07:09:56.831Z,0.00
2017-12-26T07:10:57.248Z,0.00
2017-12-26T07:11:57.683Z,0.00
2017-12-26T07:12:58.093Z,0.00
2017-12-26T07:13:58.510Z,0.00
2017-12-26T07:14:58.927Z,5.63
2017-12-26T07:15:59.346Z,5.63
2017-12-26T07:16:59.767Z,5.63
2017-12-26T07:18:00.186Z,5.63
2017-12-26T07:19:00.607Z,5.63
2017-12-26T07:20:01.023Z,5.63
2017-12-26T07:21:01.446Z,5.63
2017-12-26T07:22:01.869Z,5.63
2017-12-26T07:23:02.285Z,5.63
2017-12-26T07:24:02.709Z,5.63
2017-12-26T07:25:03.129Z,11.25
2017-12-26T07:26:03.547Z,11.25
2017-12-26T07:27:03.971Z,11.25
2017-12-26T07:28:04.401Z,11.25
2017-12-26T07:29:04.813Z,11.25
2017-12-26T07:30:05.236Z,16.88
2017-12-26T07:31:05.647Z,16.88
2017-12-26T07:32:06.075Z,16.88
2017-12-26T07:33:06.490Z,16.88
2017-12-26T07:34:06.963Z,22.50
2017-12-26T07:35:07.331Z,22.50
2017-12-26T07:36:07.752Z,22.50
2017-12-26T07:37:08.184Z,22.50
2017-12-26T07:38:08.593Z,22.50
2017-12-26T07:39:09.014Z,22.50
2017-12-26T07:40:09.434Z,22.50
2017-12-26T07:41:09.869Z,28.13
2017-12-26T07:42:10.276Z,28.13
2017-12-26T07:43:10.694Z,28.13
2017-12-26T07:44:11.116Z,28.13
2017-12-26T07:45:11.545Z,28.13
2017-12-26T07:46:11.956Z,28.13
2017-12-26T07:47:12.375Z,28.13
2017-12-26T07:48:12.800Z,28.13
2017-12-26T07:49:13.216Z,28.13
2017-12-26T07:50:13.635Z,28.13
2017-12-26T07:51:14.058Z,33.75
2017-12-26T07:52:14.480Z,33.75
2017-12-26T07:53:14.900Z,33.75
2017-12-26T07:54:15.326Z,33.75
2017-12-26T07:55:15.742Z,33.75
2017-12-26T07:56:16.214Z,33.75
2017-12-26T07:57:16.584Z,33.75
2017-12-26T07:58:17.000Z,33.75
2017-12-26T07:59:17.419Z,33.75
2017-12-26T08:00:17.846Z,33.75
2017-12-26T08:01:18.262Z,33.75
2017-12-26T08:02:18.684Z,33.75
2017-12-26T08:03:19.132Z,33.75
2017-12-26T08:04:19.532Z,33.75
2017-12-26T08:05:19.945Z,33.75
2017-12-26T08:06:20.436Z,33.75
2017-12-26T08:07:20.786Z,33.75
2017-12-26T08:08:21.205Z,39.38
2017-12-26T08:09:21.653Z,39.38
2017-12-26T08:10:22.048Z,39.38
2017-12-26T08:11:22.477Z,39.38
2017-12-26T08:12:22.907Z,39.38
2017-12-26T08:13:23.311Z,45.00
2017-12-26T08:14:23.729Z,45.00
2017-12-26T08:15:24.163Z,50.63
2017-12-26T08:16:24.608Z,50.63
2017-12-26T08:17:25.004Z,50.63
2017-12-26T08:18:25.413Z,50.63
2017-12-26T08:19:25.837Z,56.25
2017-12-26T08:20:26.256Z,56.25
2017-12-26T08:21:26.702Z,56.25
2017-12-26T08:22:27.096Z,56.25
2017-12-26T08:23:27.514Z,56.25
2017-12-26T08:24:27.936Z,50.63
2017-12-26T08:25:28.361Z,50.63
2017-12-26T08:26:28.782Z,50.63
2017-12-26T08:27:29.200Z,50.63
2017-12-26T08:28:29.622Z,50.63
2017-12-26T08:29:30.043Z,50.63
2017-12-26T08:30:30.467Z,50.63
2017-12-26T08:31:30.909Z,50.63
2017-12-26T08:32:31.308Z,50.63
2017-12-26T08:33:31.728Z,50.63
2017-12-26T08:34:32.150Z,56.25
2017-12-26T08:35:32.571Z,56.25
2017-12-26T08:36:32.987Z,56.25
2017-12-26T08:37:33.416Z,56.25
2017-12-26T08:38:33.830Z,61.88
2017-12-26T08:39:34.257Z,61.88
2017-12-26T08:40:34.686Z,61.88
2017-12-26T08:41:35.092Z,61.88
2017-12-26T08:42:35.512Z,61.88
2017-12-26T08:43:35.938Z,61.88
2017-12-26T08:44:36.354Z,61.88
2017-12-26T08:45:36.777Z,61.88
2017-12-26T08:46:37.199Z,67.50
2017-12-26T08:47:37.617Z,67.50
2017-12-26T08:48:38.045Z,67.50
2017-12-26T08:49:38.464Z,73.13
2017-12-26T08:50:38.887Z,73.13
2017-12-26T08:51:39.312Z,78.75
2017-12-26T08:52:39.726Z,78.75
2017-12-26T08:53:40.198Z,78.75
2017-12-26T08:54:40.569Z,73.13
2017-12-26T08:55:40.990Z,73.13
2017-12-26T08:56:41.412Z,67.50
2017-12-26T08:57:41.835Z,67.50
2017-12-26T08:58:42.259Z,67.50
2017-12-26T08:59:42.678Z,67.50
2017-12-26T09:00:43.105Z,67.50
2017-12-26T09:01:43.526Z,67.50
2017-12-26T09:02:43.940Z,73.13
2017-12-26T09:03:44.385Z,73.13
2017-12-26T09:04:44.783Z,73.13
2017-12-26T09:05:45.207Z,73.13
2017-12-26T09:06:45.626Z,73.13
2017-12-26T09:07:46.056Z,73.13
2017-12-26T09:08:46.470Z,73.13
2017-12-26T09:09:46.893Z,73.13
2017-12-26T09:10:47.333Z,73.13
2017-12-26T09:11:47.740Z,73.13
2017-12-26T09:12:48.165Z,73.13
2017-12-26T09:13:48.602Z,73.13
2017-12-26T09:14:49.015Z,73.13
2017-12-26T09:15:49.441Z,73.13
2017-12-26T09:16:49.855Z,67.50
2017-12-26T09:17:50.276Z,67.50
2017-12-26T09:18:50.690Z,67.50
2017-12-26T09:19:51.134Z,67.50
2017-12-26T09:20:51.549Z,67.50
2017-12-26T09:21:51.959Z,67.50
2017-12-26T09:22:52.380Z,67.50
2017-12-26T09:23:52.797Z,67.50
2017-12-26T09:24:53.228Z,73.13
2017-12-26T09:25:53.649Z,73.13
2017-12-26T09:26:54.066Z,78.75
2017-12-26T09:27:54.492Z,84.38
2017-12-26T09:28:54.903Z,84.38
2017-12-26T09:29:55.328Z,84.38
2017-12-26T09:30:55.750Z,84.38
2017-12-26T09:31:56.214Z,78.75
2017-12-26T09:32:56.617Z,78.75
2017-12-26T09:33:57.042Z,84.38
2017-12-26T09:34:57.446Z,90.00
2017-12-26T09:35:57.929Z,90.00
2017-12-26T09:36:58.279Z,90.00
2017-12-26T09:37:58.712Z,95.63
2017-12-26T09:38:59.130Z,90.00
2017-12-26T09:39:59.565Z,95.63
2017-12-26T09:40:59.968Z,95.63
2017-12-26T09:42:00.391Z,95.63
2017-12-26T09:43:00.816Z,95.63
2017-12-26T09:44:01.242Z,90.00
2017-12-26T09:45:01.674Z,90.00
2017-12-26T09:46:02.103Z,95.63
2017-12-26T09:47:02.510Z,106.88
2017-12-26T09:48:02.936Z,112.50
2017-12-26T09:49:03.353Z,112.50
2017-12-26T09:50:03.781Z,123.75
2017-12-26T09:51:04.198Z,129.38
2017-12-26T09:52:04.636Z,135.00
2017-12-26T09:53:05.045Z,146.25
2017-12-26T09:54:05.460Z,151.88
2017-12-26T09:55:05.886Z,146.25
2017-12-26T09:56:06.308Z,146.25
2017-12-26T09:57:06.720Z,146.25
2017-12-26T09:58:07.146Z,146.25
2017-12-26T09:59:07.584Z,151.88
2017-12-26T10:00:07.998Z,157.50
2017-12-26T10:01:08.417Z,151.88
2017-12-26T10:02:08.846Z,191.25
2017-12-26T10:03:09.260Z,208.13
2017-12-26T10:04:09.681Z,213.75
2017-12-26T10:05:10.103Z,219.38
2017-12-26T10:06:10.527Z,219.38
2017-12-26T10:07:10.965Z,202.50
2017-12-26T10:08:11.375Z,208.13
2017-12-26T10:09:11.816Z,208.13
2017-12-26T10:10:12.273Z,219.38
2017-12-26T10:11:12.678Z,230.63
2017-12-26T10:12:13.085Z,241.88
2017-12-26T10:13:13.499Z,247.50
2017-12-26T10:14:13.924Z,241.88
2017-12-26T10:15:14.363Z,241.88
2017-12-26T10:16:14.779Z,241.88
2017-12-26T10:17:15.206Z,241.88
2017-12-26T10:18:15.639Z,241.88
2017-12-26T10:19:16.102Z,247.50
2017-12-26T10:20:16.486Z,241.88
2017-12-26T10:21:17.029Z,241.88
2017-12-26T10:22:17.345Z,241.88
2017-12-26T10:23:17.772Z,241.88
2017-12-26T10:24:18.218Z,247.50
2017-12-26T10:25:18.631Z,236.25
2017-12-26T10:26:19.061Z,230.63
2017-12-26T10:27:19.532Z,213.75
2017-12-26T10:28:19.921Z,219.38
2017-12-26T10:29:20.360Z,208.13
2017-12-26T10:30:20.784Z,196.88
2017-12-26T10:31:21.227Z,213.75
2017-12-26T10:32:21.661Z,213.75
2017-12-26T10:33:22.069Z,219.38
2017-12-26T10:34:22.508Z,219.38
2017-12-26T10:35:22.928Z,219.38
2017-12-26T10:36:23.356Z,219.38
2017-12-26T10:37:23.783Z,225.00
2017-12-26T10:38:24.212Z,230.63
2017-12-26T10:39:24.639Z,241.88
2017-12-26T10:40:25.077Z,241.88
2017-12-26T10:41:25.497Z,247.50
2017-12-26T10:42:25.922Z,241.88
2017-12-26T10:43:26.356Z,247.50
2017-12-26T10:44:26.778Z,247.50
2017-12-26T10:45:27.215Z,247.50
2017-12-26T10:46:27.635Z,247.50
2017-12-26T10:47:28.064Z,247.50
2017-12-26T10:48:28.498Z,247.50
2017-12-26T10:49:28.923Z,247.50
2017-12-26T10:50:29.351Z,247.50
2017-12-26T10:51:29.807Z,247.50
2017-12-26T10:52:30.216Z,247.50
2017-12-26T10:53:30.646Z,247.50
2017-12-26T10:54:31.078Z,247.50
2017-12-26T10:55:31.529Z,247.50
2017-12-26T10:56:31.940Z,208.13
2017-12-26T10:57:32.367Z,191.25
2017-12-26T10:58:32.801Z,208.13
2017-12-26T10:59:33.231Z,241.88
2017-12-26T11:00:33.668Z,247.50
2017-12-26T11:01:34.099Z,241.88
2017-12-26T11:02:34.577Z,241.88
2017-12-26T11:03:34.963Z,241.88
2017-12-26T11:04:35.392Z,247.50
2017-12-26T11:05:35.828Z,241.88
2017-12-26T11:06:36.258Z,247.50
2017-12-26T11:07:36.694Z,241.88
2017-12-26T11:08:37.143Z,241.88
2017-12-26T11:09:37.559Z,247.50
2017-12-26T11:10:38.003Z,241.88
2017-12-26T11:11:38.428Z,247.50
2017-12-26T11:12:38.865Z,247.50
2017-12-26T11:13:39.296Z,241.88
2017-12-26T11:14:39.729Z,241.88
2017-12-26T11:15:40.165Z,241.88
2017-12-26T11:16:40.615Z,247.50
2017-12-26T11:17:41.035Z,253.13
2017-12-26T11:18:41.470Z,253.13
2017-12-26T11:19:41.904Z,258.75
2017-12-26T11:20:42.342Z,258.75
2017-12-26T11:21:42.771Z,270.00
2017-12-26T11:22:43.220Z,281.25
2017-12-26T11:23:43.642Z,292.50
2017-12-26T11:24:44.075Z,354.38
2017-12-26T11:25:44.511Z,438.75
2017-12-26T11:26:44.948Z,601.88
2017-12-26T11:27:45.388Z,607.50
2017-12-26T11:28:45.817Z,585.00
2017-12-26T11:29:46.253Z,590.63
2017-12-26T11:30:46.685Z,601.88
2017-12-26T11:31:47.123Z,613.13
2017-12-26T11:32:47.557Z,635.63
2017-12-26T11:33:48.007Z,669.38
2017-12-26T11:34:48.436Z,680.63
2017-12-26T11:35:48.863Z,652.50
2017-12-26T11:36:49.300Z,630.00
2017-12-26T11:37:49.734Z,630.00
2017-12-26T11:38:50.171Z,635.63
2017-12-26T11:39:50.604Z,646.88
2017-12-26T11:40:51.047Z,658.13
2017-12-26T11:41:51.477Z,663.75
2017-12-26T11:42:51.914Z,652.50
2017-12-26T11:43:52.352Z,630.00
2017-12-26T11:44:52.783Z,630.00
2017-12-26T11:45:53.217Z,607.50
2017-12-26T11:46:53.661Z,354.38
2017-12-26T11:47:54.093Z,123.75
2017-12-26T11:48:54.540Z,118.13
2017-12-26T11:49:54.962Z,112.50
2017-12-26T11:50:55.399Z,112.50
2017-12-26T11:51:55.839Z,106.88
2017-12-26T11:52:56.269Z,106.88
2017-12-26T11:53:56.705Z,106.88
2017-12-26T11:54:57.139Z,106.88
2017-12-26T11:55:57.570Z,106.88
2017-12-26T11:56:57.999Z,106.88
2017-12-26T11:57:58.437Z,106.88
2017-12-26T11:58:58.871Z,106.88
2017-12-26T11:59:59.307Z,106.88
2017-12-26T12:00:59.732Z,112.50
2017-12-26T12:02:00.159Z,118.13
2017-12-26T12:03:00.596Z,135.00
2017-12-26T12:04:01.021Z,118.13
2017-12-26T12:05:01.450Z,118.13
2017-12-26T12:06:01.882Z,118.13
2017-12-26T12:07:02.310Z,118.13
2017-12-26T12:08:02.746Z,112.50
2017-12-26T12:09:03.175Z,112.50
2017-12-26T12:10:03.619Z,101.25
2017-12-26T12:11:04.027Z,118.13
2017-12-26T12:12:04.457Z,123.75
2017-12-26T12:13:04.881Z,118.13
2017-12-26T12:14:05.329Z,101.25
2017-12-26T12:15:05.741Z,90.00
2017-12-26T12:16:06.166Z,90.00
2017-12-26T12:17:06.596Z,95.63
2017-12-26T12:18:07.074Z,84.38
2017-12-26T12:19:07.455Z,84.38
2017-12-26T12:20:07.879Z,90.00
2017-12-26T12:21:08.308Z,90.00
2017-12-26T12:22:08.733Z,90.00
2017-12-26T12:23:09.164Z,95.63
2017-12-26T12:24:09.586Z,95.63
2017-12-26T12:25:10.014Z,95.63
2017-12-26T12:26:10.444Z,95.63
2017-12-26T12:27:10.875Z,95.63
2017-12-26T12:28:11.296Z,95.63
2017-12-26T12:29:11.738Z,90.00
2017-12-26T12:30:12.149Z,84.38
2017-12-26T12:31:12.636Z,73.13
2017-12-26T12:32:13.003Z,67.50
2017-12-26T12:33:13.430Z,61.88
2017-12-26T12:34:13.860Z,61.88
2017-12-26T12:35:14.282Z,61.88
2017-12-26T12:36:14.723Z,67.50
2017-12-26T12:37:15.143Z,61.88
2017-12-26T12:38:15.562Z,50.63
2017-12-26T12:39:15.992Z,56.25
2017-12-26T12:40:16.427Z,56.25
2017-12-26T12:41:16.843Z,61.88
2017-12-26T12:42:17.275Z,56.25
2017-12-26T12:43:17.696Z,50.63
2017-12-26T12:44:18.180Z,45.00
2017-12-26T12:45:18.549Z,45.00
2017-12-26T12:46:18.979Z,39.38
2017-12-26T12:47:19.405Z,39.38
2017-12-26T12:48:19.828Z,45.00
2017-12-26T12:49:20.257Z,50.63
2017-12-26T12:50:20.679Z,50.63
2017-12-26T12:51:21.112Z,39.38
2017-12-26T12:52:21.535Z,33.75
2017-12-26T12:53:21.963Z,39.38
2017-12-26T12:54:22.391Z,39.38
2017-12-26T12:55:22.817Z,39.38
2017-12-26T12:56:23.251Z,33.75
2017-12-26T12:57:23.668Z,28.13
2017-12-26T12:58:24.098Z,22.50
2017-12-26T12:59:24.529Z,22.50
2017-12-26T13:00:24.947Z,22.50
2017-12-26T13:01:25.375Z,22.50
2017-12-26T13:02:25.801Z,22.50
2017-12-26T13:03:26.229Z,22.50
2017-12-26T13:04:26.660Z,28.13
2017-12-26T13:05:27.086Z,28.13
2017-12-26T13:06:27.516Z,33.75
2017-12-26T13:07:27.935Z,33.75
2017-12-26T13:08:28.362Z,33.75
2017-12-26T13:09:28.792Z,28.13